createdAt,value
2022-12-19T00:28:48.494Z,0.7
2022-12-19T00:48:49.420Z,0.8
2022-12-19T01:08:50.850Z,1.1
2022-12-19T01:48:53.063Z,1.9
2022-12-19T02:08:53.395Z,2.1
2022-12-19T02:18:53.570Z,2.3
2022-12-19T04:59:03.321Z,3.9
2022-12-19T05:09:03.983Z,4.1
2022-12-19T05:19:04.476Z,4.2
2022-12-19T05:39:05.800Z,4.4
2022-12-19T05:49:06.179Z,4.6
2022-12-19T05:59:07.153Z,4.7
2022-12-19T06:19:08.512Z,4.8
2022-12-19T06:29:09.573Z,5
2022-12-19T06:39:10.635Z,5
2022-12-19T06:49:11.674Z,5.2
2022-12-19T06:59:11.794Z,5.3
2022-12-19T07:09:12.513Z,5.4
2022-12-19T07:19:13.061Z,5.5
2022-12-19T07:29:13.242Z,5.7
2022-12-19T07:39:14.292Z,5.8
2022-12-19T07:49:19.649Z,6
2022-12-19T07:59:16.373Z,6.1
2022-12-19T08:09:16.726Z,6.2
2022-12-19T08:19:17.248Z,6.1
2022-12-19T08:29:18.184Z,6.2
2022-12-19T08:39:18.367Z,6.3
2022-12-19T08:49:18.394Z,6.4
2022-12-19T08:59:21.286Z,6.5
2022-12-19T09:29:21.480Z,6.5
2022-12-19T09:49:21.334Z,6.7
2022-12-19T10:19:22.987Z,7.3
2022-12-19T10:29:23.796Z,7.5
2022-12-19T10:49:25.276Z,7.8
2022-12-19T10:59:25.964Z,8
2022-12-19T11:31:00.591Z,8.5
2022-12-19T11:39:27.660Z,8.6
2022-12-19T11:49:28.413Z,8.6
2022-12-19T11:59:29.182Z,8.9
2022-12-19T12:23:43.137Z,9.1
2022-12-19T12:31:37.128Z,9.2
2022-12-19T12:39:33.459Z,9.2
2022-12-19T12:49:32.279Z,9
2022-12-19T12:59:33.292Z,8.9
2022-12-19T13:09:33.995Z,9
2022-12-19T13:19:34.816Z,8.9
2022-12-19T13:29:35.880Z,9
2022-12-19T13:39:53.560Z,9
2022-12-19T13:49:37.157Z,9.2
2022-12-19T14:11:24.165Z,9.3
2022-12-19T14:19:39.249Z,9.4
2022-12-19T14:30:26.881Z,9.5
2022-12-19T14:39:45.165Z,9.5
2022-12-19T14:53:34.183Z,9.6
2022-12-19T14:59:45.918Z,9.5
2022-12-19T15:11:01.165Z,9.5
2022-12-19T15:19:46.948Z,9.5
2022-12-19T15:29:47.851Z,9.5
2022-12-19T15:39:48.909Z,9.5
2022-12-19T15:49:49.926Z,9.4
2022-12-19T16:09:51.028Z,9.6
2022-12-19T16:19:52.089Z,9.4
2022-12-19T16:29:53.046Z,9.4
2022-12-19T16:39:54.045Z,9.4
2022-12-19T16:49:54.299Z,9.2
2022-12-19T16:59:54.943Z,9.2
2022-12-19T17:09:55.584Z,9
2022-12-19T17:19:56.547Z,9
2022-12-19T17:29:56.631Z,9
2022-12-19T17:39:57.680Z,9.2
2022-12-19T17:49:58.629Z,9.4
2022-12-19T17:59:58.987Z,9.2
2022-12-19T18:10:00.035Z,9.3
2022-12-19T18:20:00.294Z,9.1
2022-12-19T18:30:01.380Z,9.2
2022-12-19T18:40:02.034Z,9.5
2022-12-19T18:50:02.989Z,9.7
2022-12-19T19:00:04.126Z,9.7
2022-12-19T19:20:05.330Z,10
2022-12-19T19:30:05.964Z,10
2022-12-19T19:40:06.698Z,10.2
2022-12-19T19:50:07.102Z,10.2
2022-12-19T20:00:08.055Z,10.2
2022-12-19T20:20:09.873Z,10.3
2022-12-19T20:30:10.636Z,10.4
2022-12-19T20:40:11.353Z,10.3
2022-12-19T21:00:12.336Z,10.3
2022-12-19T21:10:13.096Z,10.3
2022-12-19T21:20:14.150Z,10.4
2022-12-19T21:30:14.662Z,10.6
2022-12-19T21:40:14.905Z,10.5
2022-12-19T21:50:15.314Z,10.6
2022-12-19T22:00:16.282Z,10.5
2022-12-19T22:10:17.397Z,10.5
2022-12-19T22:20:17.765Z,10.5
2022-12-19T22:30:18.138Z,10.6
2022-12-19T22:40:19.155Z,10.4
2022-12-19T22:50:19.532Z,10.5
2022-12-19T23:10:20.464Z,10.1
2022-12-19T23:20:20.924Z,10.3
2022-12-19T23:30:21.856Z,10.4
2022-12-19T23:50:23.525Z,10.8
